sensor_id;sensor_type;location;lat;lon;timestamp;temperature;humidity
5150;DHT22;2593;52.466;13.436;2022-09-13T00:00:42;14.80;99.90
5150;DHT22;2593;52.466;13.436;2022-09-13T00:03:09;14.80;99.90
5150;DHT22;2593;52.466;13.436;2022-09-13T00:05:36;14.80;99.90
5150;DHT22;2593;52.466;13.436;2022-09-13T00:08:02;14.80;99.90
5150;DHT22;2593;52.466;13.436;2022-09-13T00:10:28;14.70;99.90
5150;DHT22;2593;52.466;13.436;2022-09-13T00:12:53;14.70;99.90
5150;DHT22;2593;52.466;13.436;2022-09-13T00:15:19;14.70;99.90
5150;DHT22;2593;52.466;13.436;2022-09-13T00:17:45;14.80;99.90
5150;DHT22;2593;52.466;13.436;2022-09-13T00:20:11;14.70;99.90
5150;DHT22;2593;52.466;13.436;2022-09-13T00:22:37;14.70;99.90
5150;DHT22;2593;52.466;13.436;2022-09-13T00:25:03;14.70;99.90
5150;DHT22;2593;52.466;13.436;2022-09-13T00:27:32;14.70;99.90
5150;DHT22;2593;52.466;13.436;2022-09-13T00:29:58;14.70;99.90
5150;DHT22;2593;52.466;13.436;2022-09-13T00:32:23;14.70;99.90
5150;DHT22;2593;52.466;13.436;2022-09-13T00:34:49;14.70;99.90
5150;DHT22;2593;52.466;13.436;2022-09-13T00:37:14;14.70;99.90
5150;DHT22;2593;52.466;13.436;2022-09-13T00:39:40;14.70;99.90
5150;DHT22;2593;52.466;13.436;2022-09-13T00:42:12;14.60;99.90
5150;DHT22;2593;52.466;13.436;2022-09-13T00:47:50;14.60;99.90
5150;DHT22;2593;52.466;13.436;2022-09-13T00:55:31;14.50;99.90
5150;DHT22;2593;52.466;13.436;2022-09-13T00:58:03;14.50;99.90
5150;DHT22;2593;52.466;13.436;2022-09-13T01:00:30;14.50;99.90
5150;DHT22;2593;52.466;13.436;2022-09-13T01:03:03;14.40;99.90
5150;DHT22;2593;52.466;13.436;2022-09-13T01:05:34;14.40;1.00
5150;DHT22;2593;52.466;13.436;2022-09-13T01:08:01;14.40;1.00
5150;DHT22;2593;52.466;13.436;2022-09-13T01:10:28;14.40;1.00
5150;DHT22;2593;52.466;13.436;2022-09-13T01:15:29;14.30;1.00
5150;DHT22;2593;52.466;13.436;2022-09-13T01:17:55;14.30;1.00
5150;DHT22;2593;52.466;13.436;2022-09-13T01:20:27;14.40;1.00
5150;DHT22;2593;52.466;13.436;2022-09-13T01:28:57;14.30;1.00
5150;DHT22;2593;52.466;13.436;2022-09-13T01:31:32;14.30;1.00
5150;DHT22;2593;52.466;13.436;2022-09-13T01:34:21;14.30;22.20
5150;DHT22;2593;52.466;13.436;2022-09-13T01:42:14;14.30;79.60
5150;DHT22;2593;52.466;13.436;2022-09-13T01:47:44;14.20;99.90
5150;DHT22;2593;52.466;13.436;2022-09-13T01:53:20;14.20;1.00
5150;DHT22;2593;52.466;13.436;2022-09-13T01:56:26;14.10;99.90
5150;DHT22;2593;52.466;13.436;2022-09-13T01:58:57;14.10;99.90
5150;DHT22;2593;52.466;13.436;2022-09-13T02:01:31;14.10;99.90
5150;DHT22;2593;52.466;13.436;2022-09-13T02:06:40;14.10;99.90
5150;DHT22;2593;52.466;13.436;2022-09-13T02:09:13;14.10;99.90
5150;DHT22;2593;52.466;13.436;2022-09-13T02:11:41;14.10;99.90
5150;DHT22;2593;52.466;13.436;2022-09-13T02:14:13;14.10;99.90
5150;DHT22;2593;52.466;13.436;2022-09-13T02:16:49;14.00;99.90
5150;DHT22;2593;52.466;13.436;2022-09-13T02:19:22;14.00;99.90
5150;DHT22;2593;52.466;13.436;2022-09-13T02:21:57;14.00;99.90
5150;DHT22;2593;52.466;13.436;2022-09-13T02:24:29;14.00;99.90
5150;DHT22;2593;52.466;13.436;2022-09-13T02:26:58;13.90;99.90
5150;DHT22;2593;52.466;13.436;2022-09-13T02:29:28;14.00;99.90
5150;DHT22;2593;52.466;13.436;2022-09-13T02:32:21;13.90;99.90
5150;DHT22;2593;52.466;13.436;2022-09-13T02:37:31;13.90;99.90
5150;DHT22;2593;52.466;13.436;2022-09-13T02:40:06;13.90;99.90
5150;DHT22;2593;52.466;13.436;2022-09-13T02:42:40;13.90;99.90
5150;DHT22;2593;52.466;13.436;2022-09-13T02:45:08;13.80;99.90
5150;DHT22;2593;52.466;13.436;2022-09-13T02:58:33;13.90;99.90
5150;DHT22;2593;52.466;13.436;2022-09-13T03:01:07;13.90;99.90
5150;DHT22;2593;52.466;13.436;2022-09-13T03:03:33;13.90;99.90
5150;DHT22;2593;52.466;13.436;2022-09-13T03:05:59;13.90;99.90
5150;DHT22;2593;52.466;13.436;2022-09-13T03:08:25;13.90;99.90
5150;DHT22;2593;52.466;13.436;2022-09-13T03:13:55;13.90;99.90
5150;DHT22;2593;52.466;13.436;2022-09-13T03:16:42;13.90;99.90
5150;DHT22;2593;52.466;13.436;2022-09-13T03:19:27;13.90;99.90
5150;DHT22;2593;52.466;13.436;2022-09-13T03:22:22;13.80;99.90
5150;DHT22;2593;52.466;13.436;2022-09-13T03:25:55;13.80;99.90
5150;DHT22;2593;52.466;13.436;2022-09-13T03:30:50;13.70;99.90
5150;DHT22;2593;52.466;13.436;2022-09-13T03:36:24;13.70;99.90
5150;DHT22;2593;52.466;13.436;2022-09-13T03:39:00;13.70;99.90
5150;DHT22;2593;52.466;13.436;2022-09-13T03:41:33;13.70;99.90
5150;DHT22;2593;52.466;13.436;2022-09-13T03:44:02;13.60;99.90
5150;DHT22;2593;52.466;13.436;2022-09-13T03:46:39;13.70;99.90
5150;DHT22;2593;52.466;13.436;2022-09-13T03:49:25;13.70;99.90
5150;DHT22;2593;52.466;13.436;2022-09-13T03:51:51;13.60;99.90
5150;DHT22;2593;52.466;13.436;2022-09-13T03:54:37;13.60;99.90
5150;DHT22;2593;52.466;13.436;2022-09-13T03:57:09;13.60;99.90
5150;DHT22;2593;52.466;13.436;2022-09-13T03:59:36;13.60;1.00
5150;DHT22;2593;52.466;13.436;2022-09-13T04:02:04;13.60;1.00
5150;DHT22;2593;52.466;13.436;2022-09-13T04:04:29;13.60;1.00
5150;DHT22;2593;52.466;13.436;2022-09-13T04:06:55;13.60;1.00
5150;DHT22;2593;52.466;13.436;2022-09-13T04:09:21;13.60;1.00
5150;DHT22;2593;52.466;13.436;2022-09-13T04:11:47;13.60;1.00
5150;DHT22;2593;52.466;13.436;2022-09-13T04:14:13;13.70;99.90
5150;DHT22;2593;52.466;13.436;2022-09-13T04:16:40;13.70;99.90
5150;DHT22;2593;52.466;13.436;2022-09-13T04:19:06;13.70;99.90
5150;DHT22;2593;52.466;13.436;2022-09-13T04:21:32;13.70;99.90
5150;DHT22;2593;52.466;13.436;2022-09-13T04:23:57;13.70;99.90
5150;DHT22;2593;52.466;13.436;2022-09-13T04:26:23;13.60;99.90
5150;DHT22;2593;52.466;13.436;2022-09-13T04:28:48;13.70;99.90
5150;DHT22;2593;52.466;13.436;2022-09-13T04:31:14;13.80;99.90
5150;DHT22;2593;52.466;13.436;2022-09-13T04:33:39;13.80;99.90
5150;DHT22;2593;52.466;13.436;2022-09-13T04:36:05;13.70;99.90
5150;DHT22;2593;52.466;13.436;2022-09-13T04:38:31;13.70;99.90
5150;DHT22;2593;52.466;13.436;2022-09-13T04:40:57;13.70;99.90
5150;DHT22;2593;52.466;13.436;2022-09-13T04:43:23;13.70;99.90
5150;DHT22;2593;52.466;13.436;2022-09-13T04:45:49;13.70;99.90
5150;DHT22;2593;52.466;13.436;2022-09-13T04:48:15;13.80;99.90
5150;DHT22;2593;52.466;13.436;2022-09-13T04:50:41;13.80;99.90
5150;DHT22;2593;52.466;13.436;2022-09-13T04:53:06;13.70;99.90
5150;DHT22;2593;52.466;13.436;2022-09-13T04:55:32;13.70;99.90
5150;DHT22;2593;52.466;13.436;2022-09-13T04:57:58;13.70;99.90
5150;DHT22;2593;52.466;13.436;2022-09-13T05:00:23;13.70;99.90
5150;DHT22;2593;52.466;13.436;2022-09-13T05:02:54;13.60;99.90
5150;DHT22;2593;52.466;13.436;2022-09-13T05:05:20;13.70;99.90
5150;DHT22;2593;52.466;13.436;2022-09-13T05:07:49;13.70;99.90
5150;DHT22;2593;52.466;13.436;2022-09-13T05:10:15;13.80;99.90
5150;DHT22;2593;52.466;13.436;2022-09-13T05:12:41;13.80;99.90
5150;DHT22;2593;52.466;13.436;2022-09-13T05:15:06;13.80;99.90
5150;DHT22;2593;52.466;13.436;2022-09-13T05:17:32;13.90;90.90
5150;DHT22;2593;52.466;13.436;2022-09-13T05:19:58;13.90;95.70
5150;DHT22;2593;52.466;13.436;2022-09-13T05:22:23;13.90;1.00
5150;DHT22;2593;52.466;13.436;2022-09-13T05:24:49;13.90;1.00
5150;DHT22;2593;52.466;13.436;2022-09-13T05:27:15;14.00;1.00
5150;DHT22;2593;52.466;13.436;2022-09-13T05:29:40;14.00;1.00
5150;DHT22;2593;52.466;13.436;2022-09-13T05:32:06;14.00;1.00
5150;DHT22;2593;52.466;13.436;2022-09-13T05:34:31;14.10;1.00
5150;DHT22;2593;52.466;13.436;2022-09-13T05:36:57;14.20;99.90
5150;DHT22;2593;52.466;13.436;2022-09-13T05:39:22;14.10;99.90
5150;DHT22;2593;52.466;13.436;2022-09-13T05:41:48;14.00;1.00
5150;DHT22;2593;52.466;13.436;2022-09-13T05:44:14;14.00;1.00
5150;DHT22;2593;52.466;13.436;2022-09-13T05:46:40;14.00;1.00
5150;DHT22;2593;52.466;13.436;2022-09-13T05:49:06;14.10;1.00
5150;DHT22;2593;52.466;13.436;2022-09-13T05:51:32;14.10;1.00
5150;DHT22;2593;52.466;13.436;2022-09-13T05:53:57;14.20;1.00
5150;DHT22;2593;52.466;13.436;2022-09-13T05:56:26;14.10;1.00
5150;DHT22;2593;52.466;13.436;2022-09-13T05:58:52;14.20;1.00
5150;DHT22;2593;52.466;13.436;2022-09-13T06:01:22;14.20;1.00
5150;DHT22;2593;52.466;13.436;2022-09-13T06:03:52;14.30;99.90
5150;DHT22;2593;52.466;13.436;2022-09-13T06:06:19;14.30;1.00
5150;DHT22;2593;52.466;13.436;2022-09-13T06:08:45;14.30;99.90
5150;DHT22;2593;52.466;13.436;2022-09-13T06:11:13;14.30;1.00
5150;DHT22;2593;52.466;13.436;2022-09-13T06:13:39;14.40;53.10
5150;DHT22;2593;52.466;13.436;2022-09-13T06:16:08;14.40;1.00
5150;DHT22;2593;52.466;13.436;2022-09-13T06:18:34;14.30;1.00
5150;DHT22;2593;52.466;13.436;2022-09-13T06:21:09;14.40;1.00
5150;DHT22;2593;52.466;13.436;2022-09-13T06:23:35;14.30;1.00
5150;DHT22;2593;52.466;13.436;2022-09-13T06:26:07;14.30;99.90
5150;DHT22;2593;52.466;13.436;2022-09-13T06:28:33;14.30;99.90
5150;DHT22;2593;52.466;13.436;2022-09-13T06:31:05;14.30;1.00
5150;DHT22;2593;52.466;13.436;2022-09-13T06:33:32;14.30;1.00
5150;DHT22;2593;52.466;13.436;2022-09-13T06:36:02;14.30;1.00
5150;DHT22;2593;52.466;13.436;2022-09-13T06:38:28;14.30;1.00
5150;DHT22;2593;52.466;13.436;2022-09-13T06:41:00;14.30;1.00
5150;DHT22;2593;52.466;13.436;2022-09-13T06:43:26;14.30;1.00
5150;DHT22;2593;52.466;13.436;2022-09-13T06:45:52;14.30;1.00
5150;DHT22;2593;52.466;13.436;2022-09-13T06:48:18;14.40;1.00
5150;DHT22;2593;52.466;13.436;2022-09-13T06:50:44;14.40;1.00
5150;DHT22;2593;52.466;13.436;2022-09-13T06:53:10;14.50;1.00
5150;DHT22;2593;52.466;13.436;2022-09-13T06:55:35;14.60;1.00
5150;DHT22;2593;52.466;13.436;2022-09-13T06:58:01;14.60;1.00
5150;DHT22;2593;52.466;13.436;2022-09-13T07:00:26;14.70;1.00
5150;DHT22;2593;52.466;13.436;2022-09-13T07:02:52;14.70;1.00
5150;DHT22;2593;52.466;13.436;2022-09-13T07:05:18;14.80;1.00
5150;DHT22;2593;52.466;13.436;2022-09-13T07:07:45;14.90;1.00
5150;DHT22;2593;52.466;13.436;2022-09-13T07:10:11;15.00;99.90
5150;DHT22;2593;52.466;13.436;2022-09-13T07:12:39;15.10;99.90
5150;DHT22;2593;52.466;13.436;2022-09-13T07:15:05;15.20;1.00
5150;DHT22;2593;52.466;13.436;2022-09-13T07:17:31;15.40;1.00
5150;DHT22;2593;52.466;13.436;2022-09-13T07:19:57;15.60;99.90
5150;DHT22;2593;52.466;13.436;2022-09-13T07:22:23;15.70;99.90
5150;DHT22;2593;52.466;13.436;2022-09-13T07:24:52;15.80;43.00
5150;DHT22;2593;52.466;13.436;2022-09-13T07:27:18;15.80;1.00
5150;DHT22;2593;52.466;13.436;2022-09-13T07:29:43;15.80;99.90
5150;DHT22;2593;52.466;13.436;2022-09-13T07:32:09;15.60;1.00
5150;DHT22;2593;52.466;13.436;2022-09-13T07:34:34;15.60;1.00
5150;DHT22;2593;52.466;13.436;2022-09-13T07:37:00;15.60;1.00
5150;DHT22;2593;52.466;13.436;2022-09-13T07:39:26;15.60;1.00
5150;DHT22;2593;52.466;13.436;2022-09-13T07:41:52;15.70;1.00
5150;DHT22;2593;52.466;13.436;2022-09-13T07:44:18;15.80;1.00
5150;DHT22;2593;52.466;13.436;2022-09-13T07:46:44;15.80;1.00
5150;DHT22;2593;52.466;13.436;2022-09-13T07:49:13;15.80;99.90
5150;DHT22;2593;52.466;13.436;2022-09-13T07:51:40;15.70;99.90
5150;DHT22;2593;52.466;13.436;2022-09-13T07:54:14;15.80;1.00
5150;DHT22;2593;52.466;13.436;2022-09-13T07:56:40;15.90;99.90
5150;DHT22;2593;52.466;13.436;2022-09-13T07:59:12;15.90;1.00
5150;DHT22;2593;52.466;13.436;2022-09-13T08:01:41;16.10;99.90
5150;DHT22;2593;52.466;13.436;2022-09-13T08:04:09;16.10;1.00
5150;DHT22;2593;52.466;13.436;2022-09-13T08:06:36;16.30;99.90
5150;DHT22;2593;52.466;13.436;2022-09-13T08:09:04;16.20;99.90
5150;DHT22;2593;52.466;13.436;2022-09-13T08:11:32;16.10;1.00
5150;DHT22;2593;52.466;13.436;2022-09-13T08:13:59;16.20;1.00
5150;DHT22;2593;52.466;13.436;2022-09-13T08:16:25;16.20;99.90
5150;DHT22;2593;52.466;13.436;2022-09-13T08:18:53;16.20;99.90
5150;DHT22;2593;52.466;13.436;2022-09-13T08:21:19;16.20;1.00
5150;DHT22;2593;52.466;13.436;2022-09-13T08:23:45;16.20;25.00
5150;DHT22;2593;52.466;13.436;2022-09-13T08:26:11;16.30;1.00
5150;DHT22;2593;52.466;13.436;2022-09-13T08:28:38;16.50;99.90
5150;DHT22;2593;52.466;13.436;2022-09-13T08:31:11;16.60;1.00
5150;DHT22;2593;52.466;13.436;2022-09-13T08:33:38;16.90;1.00
5150;DHT22;2593;52.466;13.436;2022-09-13T08:36:04;17.30;99.90
5150;DHT22;2593;52.466;13.436;2022-09-13T08:38:30;17.50;1.00
5150;DHT22;2593;52.466;13.436;2022-09-13T08:40:59;17.70;1.00
5150;DHT22;2593;52.466;13.436;2022-09-13T08:46:38;17.70;99.90
5150;DHT22;2593;52.466;13.436;2022-09-13T08:49:10;17.90;99.90
5150;DHT22;2593;52.466;13.436;2022-09-13T08:51:47;18.30;99.90
5150;DHT22;2593;52.466;13.436;2022-09-13T08:54:15;18.70;99.90
5150;DHT22;2593;52.466;13.436;2022-09-13T09:07:20;23.10;1.00
5150;DHT22;2593;52.466;13.436;2022-09-13T09:15:00;22.30;1.00
5150;DHT22;2593;52.466;13.436;2022-09-13T09:20:27;22.40;1.00
5150;DHT22;2593;52.466;13.436;2022-09-13T09:23:01;22.90;1.00
5150;DHT22;2593;52.466;13.436;2022-09-13T09:25:27;23.60;1.00
5150;DHT22;2593;52.466;13.436;2022-09-13T09:27:53;24.30;1.00
5150;DHT22;2593;52.466;13.436;2022-09-13T09:30:19;24.90;1.00
5150;DHT22;2593;52.466;13.436;2022-09-13T09:33:06;25.60;1.00
5150;DHT22;2593;52.466;13.436;2022-09-13T09:38:31;26.40;1.00
5150;DHT22;2593;52.466;13.436;2022-09-13T09:41:04;26.70;1.00
5150;DHT22;2593;52.466;13.436;2022-09-13T09:43:55;27.00;1.00
5150;DHT22;2593;52.466;13.436;2022-09-13T09:46:28;27.30;1.00
5150;DHT22;2593;52.466;13.436;2022-09-13T09:49:25;27.20;1.00
5150;DHT22;2593;52.466;13.436;2022-09-13T09:52:06;27.60;1.00
5150;DHT22;2593;52.466;13.436;2022-09-13T09:54:34;27.50;1.00
5150;DHT22;2593;52.466;13.436;2022-09-13T09:57:02;27.30;1.00
5150;DHT22;2593;52.466;13.436;2022-09-13T09:59:31;26.70;1.00
5150;DHT22;2593;52.466;13.436;2022-09-13T10:01:59;26.20;1.00
5150;DHT22;2593;52.466;13.436;2022-09-13T10:04:27;25.90;1.00
5150;DHT22;2593;52.466;13.436;2022-09-13T10:07:09;25.50;1.00
5150;DHT22;2593;52.466;13.436;2022-09-13T10:09:35;25.00;1.00
5150;DHT22;2593;52.466;13.436;2022-09-13T10:12:02;24.70;1.00
5150;DHT22;2593;52.466;13.436;2022-09-13T10:14:38;25.90;1.00
5150;DHT22;2593;52.466;13.436;2022-09-13T10:19:53;28.20;1.00
5150;DHT22;2593;52.466;13.436;2022-09-13T10:22:19;28.40;1.00
5150;DHT22;2593;52.466;13.436;2022-09-13T10:24:45;28.00;1.00
5150;DHT22;2593;52.466;13.436;2022-09-13T10:29:56;26.40;1.00
5150;DHT22;2593;52.466;13.436;2022-09-13T10:32:25;25.60;1.00
5150;DHT22;2593;52.466;13.436;2022-09-13T10:34:51;24.80;1.00
5150;DHT22;2593;52.466;13.436;2022-09-13T10:37:20;24.20;1.00
5150;DHT22;2593;52.466;13.436;2022-09-13T10:42:21;23.40;1.00
5150;DHT22;2593;52.466;13.436;2022-09-13T10:44:56;23.10;1.00
5150;DHT22;2593;52.466;13.436;2022-09-13T10:49:56;22.60;1.00
5150;DHT22;2593;52.466;13.436;2022-09-13T10:52:34;22.70;1.00
5150;DHT22;2593;52.466;13.436;2022-09-13T10:57:48;22.50;1.00
5150;DHT22;2593;52.466;13.436;2022-09-13T11:00:19;22.40;1.00
5150;DHT22;2593;52.466;13.436;2022-09-13T11:25:28;21.10;1.00
5150;DHT22;2593;52.466;13.436;2022-09-13T11:39:31;20.50;99.90
5150;DHT22;2593;52.466;13.436;2022-09-13T11:45:49;20.00;99.90
5150;DHT22;2593;52.466;13.436;2022-09-13T11:56:14;19.70;99.90
5150;DHT22;2593;52.466;13.436;2022-09-13T11:58:48;19.80;99.90
5150;DHT22;2593;52.466;13.436;2022-09-13T12:01:21;19.80;99.90
5150;DHT22;2593;52.466;13.436;2022-09-13T12:04:09;19.70;1.00
5150;DHT22;2593;52.466;13.436;2022-09-13T12:06:40;19.70;99.90
5150;DHT22;2593;52.466;13.436;2022-09-13T12:09:17;19.80;99.90
5150;DHT22;2593;52.466;13.436;2022-09-13T12:11:50;19.80;99.90
5150;DHT22;2593;52.466;13.436;2022-09-13T12:14:20;19.80;99.90
5150;DHT22;2593;52.466;13.436;2022-09-13T12:16:50;19.80;60.90
5150;DHT22;2593;52.466;13.436;2022-09-13T12:19:46;19.80;99.90
5150;DHT22;2593;52.466;13.436;2022-09-13T12:22:12;19.70;60.00
5150;DHT22;2593;52.466;13.436;2022-09-13T12:30:09;19.90;1.00
5150;DHT22;2593;52.466;13.436;2022-09-13T12:32:38;20.00;1.00
5150;DHT22;2593;52.466;13.436;2022-09-13T12:37:51;20.10;99.90
5150;DHT22;2593;52.466;13.436;2022-09-13T13:01:48;19.90;99.90
5150;DHT22;2593;52.466;13.436;2022-09-13T13:04:24;19.90;99.90
5150;DHT22;2593;52.466;13.436;2022-09-13T13:11:57;19.80;99.90
5150;DHT22;2593;52.466;13.436;2022-09-13T13:14:29;19.80;99.90
5150;DHT22;2593;52.466;13.436;2022-09-13T13:19:58;19.80;99.90
5150;DHT22;2593;52.466;13.436;2022-09-13T13:25:34;20.00;99.90
5150;DHT22;2593;52.466;13.436;2022-09-13T13:31:07;20.00;99.90
5150;DHT22;2593;52.466;13.436;2022-09-13T13:33:45;20.00;99.90
5150;DHT22;2593;52.466;13.436;2022-09-13T13:36:24;20.10;99.90
5150;DHT22;2593;52.466;13.436;2022-09-13T13:38:52;20.10;99.90
5150;DHT22;2593;52.466;13.436;2022-09-13T13:46:43;20.60;99.90
5150;DHT22;2593;52.466;13.436;2022-09-13T13:55:02;20.90;99.90
5150;DHT22;2593;52.466;13.436;2022-09-13T13:58:01;20.90;99.90
5150;DHT22;2593;52.466;13.436;2022-09-13T14:00:29;20.90;99.90
5150;DHT22;2593;52.466;13.436;2022-09-13T14:09:07;21.00;99.90
5150;DHT22;2593;52.466;13.436;2022-09-13T14:12:01;20.90;99.90
5150;DHT22;2593;52.466;13.436;2022-09-13T14:14:55;21.00;99.90
5150;DHT22;2593;52.466;13.436;2022-09-13T14:18:00;21.10;99.90
5150;DHT22;2593;52.466;13.436;2022-09-13T14:20:30;21.20;99.90
5150;DHT22;2593;52.466;13.436;2022-09-13T14:23:31;21.20;99.90
5150;DHT22;2593;52.466;13.436;2022-09-13T14:25:59;21.20;99.90
5150;DHT22;2593;52.466;13.436;2022-09-13T14:28:25;21.20;99.90
5150;DHT22;2593;52.466;13.436;2022-09-13T14:30:56;21.10;99.90
5150;DHT22;2593;52.466;13.436;2022-09-13T14:33:26;21.10;99.90
5150;DHT22;2593;52.466;13.436;2022-09-13T14:36:17;21.00;99.90
5150;DHT22;2593;52.466;13.436;2022-09-13T14:38:57;20.90;99.90
5150;DHT22;2593;52.466;13.436;2022-09-13T14:41:32;20.90;99.90
5150;DHT22;2593;52.466;13.436;2022-09-13T14:44:19;20.80;99.90
5150;DHT22;2593;52.466;13.436;2022-09-13T14:46:53;20.80;99.90
5150;DHT22;2593;52.466;13.436;2022-09-13T14:49:25;20.80;99.90
5150;DHT22;2593;52.466;13.436;2022-09-13T14:51:55;20.80;99.90
5150;DHT22;2593;52.466;13.436;2022-09-13T14:54:39;20.80;99.90
5150;DHT22;2593;52.466;13.436;2022-09-13T14:57:08;20.80;99.90
5150;DHT22;2593;52.466;13.436;2022-09-13T14:59:46;20.80;99.90
5150;DHT22;2593;52.466;13.436;2022-09-13T15:02:21;20.80;99.90
5150;DHT22;2593;52.466;13.436;2022-09-13T15:04:50;20.80;99.90
5150;DHT22;2593;52.466;13.436;2022-09-13T15:07:34;20.90;99.90
5150;DHT22;2593;52.466;13.436;2022-09-13T15:10:21;20.90;99.90
5150;DHT22;2593;52.466;13.436;2022-09-13T15:13:01;20.90;99.90
5150;DHT22;2593;52.466;13.436;2022-09-13T15:23:23;20.90;99.90
5150;DHT22;2593;52.466;13.436;2022-09-13T15:25:54;20.80;99.90
5150;DHT22;2593;52.466;13.436;2022-09-13T15:28:26;20.80;99.90
5150;DHT22;2593;52.466;13.436;2022-09-13T15:30:53;20.70;99.90
5150;DHT22;2593;52.466;13.436;2022-09-13T15:33:25;20.60;99.90
5150;DHT22;2593;52.466;13.436;2022-09-13T15:35:51;20.60;99.90
5150;DHT22;2593;52.466;13.436;2022-09-13T15:38:27;20.50;99.90
5150;DHT22;2593;52.466;13.436;2022-09-13T15:41:09;20.50;99.90
5150;DHT22;2593;52.466;13.436;2022-09-13T15:43:36;20.50;99.90
5150;DHT22;2593;52.466;13.436;2022-09-13T15:46:02;20.40;99.90
5150;DHT22;2593;52.466;13.436;2022-09-13T15:48:32;20.30;99.90
5150;DHT22;2593;52.466;13.436;2022-09-13T15:53:32;20.20;99.90
5150;DHT22;2593;52.466;13.436;2022-09-13T15:55:59;20.20;99.90
5150;DHT22;2593;52.466;13.436;2022-09-13T15:58:25;20.10;99.90
5150;DHT22;2593;52.466;13.436;2022-09-13T16:00:50;20.10;99.90
5150;DHT22;2593;52.466;13.436;2022-09-13T16:03:16;20.00;99.90
5150;DHT22;2593;52.466;13.436;2022-09-13T16:05:41;20.00;99.90
5150;DHT22;2593;52.466;13.436;2022-09-13T16:08:10;20.00;99.90
5150;DHT22;2593;52.466;13.436;2022-09-13T16:10:36;19.90;1.00
5150;DHT22;2593;52.466;13.436;2022-09-13T16:13:01;19.80;99.90
5150;DHT22;2593;52.466;13.436;2022-09-13T16:15:27;19.80;1.00
5150;DHT22;2593;52.466;13.436;2022-09-13T16:17:53;19.70;1.00
5150;DHT22;2593;52.466;13.436;2022-09-13T16:20:18;19.70;1.00
5150;DHT22;2593;52.466;13.436;2022-09-13T16:22:44;19.70;1.00
5150;DHT22;2593;52.466;13.436;2022-09-13T16:25:14;19.60;1.00
5150;DHT22;2593;52.466;13.436;2022-09-13T16:27:41;19.50;1.00
5150;DHT22;2593;52.466;13.436;2022-09-13T16:30:10;19.50;1.00
5150;DHT22;2593;52.466;13.436;2022-09-13T16:32:36;19.40;1.00
5150;DHT22;2593;52.466;13.436;2022-09-13T16:35:02;19.30;1.00
5150;DHT22;2593;52.466;13.436;2022-09-13T16:37:28;19.30;81.50
5150;DHT22;2593;52.466;13.436;2022-09-13T16:39:56;19.30;25.00
5150;DHT22;2593;52.466;13.436;2022-09-13T16:42:23;19.30;99.90
5150;DHT22;2593;52.466;13.436;2022-09-13T16:44:48;19.20;99.90
5150;DHT22;2593;52.466;13.436;2022-09-13T16:47:14;19.20;99.90
5150;DHT22;2593;52.466;13.436;2022-09-13T16:49:40;19.20;99.90
5150;DHT22;2593;52.466;13.436;2022-09-13T16:52:06;19.10;99.90
5150;DHT22;2593;52.466;13.436;2022-09-13T16:54:32;19.00;99.90
5150;DHT22;2593;52.466;13.436;2022-09-13T16:57:00;19.10;99.90
5150;DHT22;2593;52.466;13.436;2022-09-13T16:59:26;19.10;99.90
5150;DHT22;2593;52.466;13.436;2022-09-13T17:01:52;19.00;99.90
5150;DHT22;2593;52.466;13.436;2022-09-13T17:04:17;19.00;99.90
5150;DHT22;2593;52.466;13.436;2022-09-13T17:06:43;19.00;99.90
5150;DHT22;2593;52.466;13.436;2022-09-13T17:09:09;19.00;99.90
5150;DHT22;2593;52.466;13.436;2022-09-13T17:11:38;19.00;1.00
5150;DHT22;2593;52.466;13.436;2022-09-13T17:14:07;18.90;1.00
5150;DHT22;2593;52.466;13.436;2022-09-13T17:16:39;18.90;99.90
5150;DHT22;2593;52.466;13.436;2022-09-13T17:19:09;18.80;99.90
5150;DHT22;2593;52.466;13.436;2022-09-13T17:21:35;18.80;99.90
5150;DHT22;2593;52.466;13.436;2022-09-13T17:24:01;18.70;1.00
5150;DHT22;2593;52.466;13.436;2022-09-13T17:26:27;18.70;1.00
5150;DHT22;2593;52.466;13.436;2022-09-13T17:28:53;18.70;93.00
5150;DHT22;2593;52.466;13.436;2022-09-13T17:31:19;18.60;99.90
5150;DHT22;2593;52.466;13.436;2022-09-13T17:33:44;18.60;99.90
5150;DHT22;2593;52.466;13.436;2022-09-13T17:36:12;18.50;1.00
5150;DHT22;2593;52.466;13.436;2022-09-13T17:38:39;18.50;99.90
5150;DHT22;2593;52.466;13.436;2022-09-13T17:41:12;18.40;99.90
5150;DHT22;2593;52.466;13.436;2022-09-13T17:43:39;18.40;1.00
5150;DHT22;2593;52.466;13.436;2022-09-13T17:46:15;18.30;99.90
5150;DHT22;2593;52.466;13.436;2022-09-13T17:48:41;18.30;99.90
5150;DHT22;2593;52.466;13.436;2022-09-13T17:51:11;18.20;1.00
5150;DHT22;2593;52.466;13.436;2022-09-13T17:53:37;18.20;1.00
5150;DHT22;2593;52.466;13.436;2022-09-13T17:56:04;18.20;19.50
5150;DHT22;2593;52.466;13.436;2022-09-13T17:58:29;18.20;85.30
5150;DHT22;2593;52.466;13.436;2022-09-13T18:01:07;18.10;84.70
5150;DHT22;2593;52.466;13.436;2022-09-13T18:03:35;18.10;99.90
5150;DHT22;2593;52.466;13.436;2022-09-13T18:06:02;18.10;99.90
5150;DHT22;2593;52.466;13.436;2022-09-13T18:08:30;18.00;99.90
5150;DHT22;2593;52.466;13.436;2022-09-13T18:11:08;18.00;99.90
5150;DHT22;2593;52.466;13.436;2022-09-13T18:13:35;18.00;99.90
5150;DHT22;2593;52.466;13.436;2022-09-13T18:18:34;17.90;99.90
5150;DHT22;2593;52.466;13.436;2022-09-13T18:20:59;17.90;99.90
5150;DHT22;2593;52.466;13.436;2022-09-13T18:23:25;17.90;99.90
5150;DHT22;2593;52.466;13.436;2022-09-13T18:28:26;17.90;99.90
5150;DHT22;2593;52.466;13.436;2022-09-13T18:30:53;17.80;99.90
5150;DHT22;2593;52.466;13.436;2022-09-13T18:33:20;17.80;99.90
5150;DHT22;2593;52.466;13.436;2022-09-13T18:36:01;17.80;99.90
5150;DHT22;2593;52.466;13.436;2022-09-13T18:38:30;17.80;99.90
5150;DHT22;2593;52.466;13.436;2022-09-13T18:41:19;17.70;99.90
5150;DHT22;2593;52.466;13.436;2022-09-13T18:43:47;17.70;99.90
5150;DHT22;2593;52.466;13.436;2022-09-13T18:46:16;17.70;99.90
5150;DHT22;2593;52.466;13.436;2022-09-13T18:48:47;17.60;99.90
5150;DHT22;2593;52.466;13.436;2022-09-13T18:51:15;17.60;99.90
5150;DHT22;2593;52.466;13.436;2022-09-13T18:53:42;17.60;99.90
5150;DHT22;2593;52.466;13.436;2022-09-13T18:56:11;17.60;99.90
5150;DHT22;2593;52.466;13.436;2022-09-13T18:58:39;17.60;99.90
5150;DHT22;2593;52.466;13.436;2022-09-13T19:01:13;17.60;99.90
5150;DHT22;2593;52.466;13.436;2022-09-13T19:03:49;17.60;99.90
5150;DHT22;2593;52.466;13.436;2022-09-13T19:06:20;17.60;99.90
5150;DHT22;2593;52.466;13.436;2022-09-13T19:08:47;17.60;99.90
5150;DHT22;2593;52.466;13.436;2022-09-13T19:11:14;17.50;99.90
5150;DHT22;2593;52.466;13.436;2022-09-13T19:13:40;17.50;99.90
5150;DHT22;2593;52.466;13.436;2022-09-13T19:16:08;17.50;99.90
5150;DHT22;2593;52.466;13.436;2022-09-13T19:18:36;17.50;99.90
5150;DHT22;2593;52.466;13.436;2022-09-13T19:21:11;17.50;1.00
5150;DHT22;2593;52.466;13.436;2022-09-13T19:23:38;17.40;1.00
5150;DHT22;2593;52.466;13.436;2022-09-13T19:26:13;17.40;1.00
5150;DHT22;2593;52.466;13.436;2022-09-13T19:28:44;17.40;1.00
5150;DHT22;2593;52.466;13.436;2022-09-13T19:31:11;17.30;1.00
5150;DHT22;2593;52.466;13.436;2022-09-13T19:33:37;17.30;1.00
5150;DHT22;2593;52.466;13.436;2022-09-13T19:36:05;17.30;1.00
5150;DHT22;2593;52.466;13.436;2022-09-13T19:38:32;17.30;1.00
5150;DHT22;2593;52.466;13.436;2022-09-13T19:40:59;17.30;1.00
5150;DHT22;2593;52.466;13.436;2022-09-13T19:43:28;17.20;1.00